Time;durP1;ratioP1;P1;durP2;ratioP2;P2;SDS_P1;SDS_P2;PMS_P1;PMS_P2;Temp;Humidity;BMP_temperature;BMP_pressure;BME280_temperature;BME280_humidity;BME280_pressure;Samples;Min_cycle;Max_cycle;Signal;HPM_P1;HPM_P2
2021/08/29 00:02:06;;;;;;;7.90;7.10;;;;;;;16.47;69.31;100059.13;4866947;28;96716;-85
2021/08/29 00:04:31;;;;;;;10.43;7.85;;;;;;;16.48;69.71;100070.56;4867511;28;96972;-81
2021/08/29 00:06:57;;;;;;;8.82;7.90;;;;;;;16.39;69.30;100049.97;4850758;28;101379;-86
2021/08/29 00:09:22;;;;;;;10.85;7.57;;;;;;;16.46;69.40;100067.16;4882481;28;98675;-86
2021/08/29 00:11:48;;;;;;;8.10;7.30;;;;;;;16.42;69.76;100065.66;4850450;28;96603;-84
2021/08/29 00:14:14;;;;;;;9.10;7.93;;;;;;;16.37;70.09;100065.09;4866713;28;96990;-84
2021/08/29 00:16:39;;;;;;;8.50;7.60;;;;;;;16.33;70.26;100069.75;4866300;28;101708;-84
2021/08/29 00:19:04;;;;;;;9.25;7.45;;;;;;;16.28;70.73;100063.88;4850600;28;101183;-84
2021/08/29 00:21:30;;;;;;;8.23;7.43;;;;;;;16.29;70.56;100066.44;4882707;28;96565;-82
2021/08/29 00:23:56;;;;;;;8.75;7.47;;;;;;;16.14;71.19;100051.47;4882390;28;96856;-84
2021/08/29 00:26:24;;;;;;;8.07;7.18;;;;;;;16.19;71.38;100064.44;4881815;28;98153;-84
2021/08/29 00:28:50;;;;;;;10.48;7.07;;;;;;;16.15;71.49;100062.94;4882185;28;97009;-84
2021/08/29 00:31:15;;;;;;;10.90;7.28;;;;;;;16.20;70.76;100052.88;4850760;28;96576;-84
2021/08/29 00:33:41;;;;;;;8.45;7.55;;;;;;;16.16;70.98;100054.88;4850599;28;96918;-85
2021/08/29 00:36:06;;;;;;;8.68;7.75;;;;;;;16.22;70.77;100056.31;4881321;28;101757;-84
2021/08/29 00:38:32;;;;;;;8.98;7.78;;;;;;;16.21;71.01;100062.56;4882051;28;97942;-82
2021/08/29 00:40:57;;;;;;;8.60;7.68;;;;;;;16.03;71.22;100036.25;4882482;28;96531;-83
2021/08/29 00:43:23;;;;;;;9.00;7.75;;;;;;;16.15;71.10;100053.19;4866375;28;96889;-84
2021/08/29 00:45:51;;;;;;;8.48;7.68;;;;;;;16.15;71.09;100050.53;4881562;28;101175;-84
2021/08/29 00:48:16;;;;;;;9.82;8.07;;;;;;;16.13;71.13;100049.78;4881761;28;101116;-84
2021/08/29 00:50:46;;;;;;;10.13;8.25;;;;;;;16.12;71.04;100048.09;4866167;28;96581;-85
2021/08/29 00:53:17;;;;;;;10.52;7.25;;;;;;;16.09;71.16;100037.69;4882400;28;97017;-85
2021/08/29 00:55:43;;;;;;;9.77;8.05;;;;;;;16.12;71.03;100049.88;4865562;28;101694;-85
2021/08/29 00:58:09;;;;;;;8.77;7.65;;;;;;;16.04;71.08;100040.59;4865950;28;99636;-84
2021/08/29 01:00:40;;;;;;;12.65;8.18;;;;;;;16.12;71.04;100057.81;4865711;28;96680;-84
2021/08/29 01:03:20;;;;;;;8.80;7.15;;;;;;;16.01;71.38;100055.81;4881805;28;96836;-84
2021/08/29 01:05:53;;;;;;;9.30;7.70;;;;;;;15.98;71.58;100046.28;4881542;28;102037;-84
2021/08/29 01:08:32;;;;;;;10.10;7.55;;;;;;;16.08;70.91;100046.53;4852349;28;101268;-84
2021/08/29 01:10:59;;;;;;;11.38;8.10;;;;;;;15.99;71.38;100055.06;4850055;28;96710;-83
2021/08/29 01:13:32;;;;;;;8.43;7.53;;;;;;;16.02;71.28;100057.50;4866000;28;97224;-84
2021/08/29 01:16:05;;;;;;;8.88;7.97;;;;;;;16.03;71.27;100052.16;4850130;28;101922;-84
2021/08/29 01:18:36;;;;;;;9.43;8.43;;;;;;;16.03;71.14;100056.59;4881668;28;101074;-82
2021/08/29 01:21:06;;;;;;;8.55;7.45;;;;;;;15.96;71.41;100045.50;4866052;28;96611;-84
2021/08/29 01:23:34;;;;;;;9.20;7.65;;;;;;;15.92;71.55;100051.09;4881414;28;96626;-80
2021/08/29 01:26:21;;;;;;;8.88;7.95;;;;;;;15.97;71.76;100049.00;4880775;28;101594;-84
2021/08/29 01:28:57;;;;;;;8.80;7.13;;;;;;;15.96;71.67;100058.72;4865387;28;101088;-84
2021/08/29 01:31:29;;;;;;;9.43;7.53;;;;;;;16.00;71.52;100056.78;4850490;28;96666;-85
2021/08/29 01:34:05;;;;;;;10.82;7.25;;;;;;;15.96;71.22;100047.31;4881234;28;97032;-85
2021/08/29 01:36:32;;;;;;;13.13;7.78;;;;;;;15.91;70.89;100044.94;4881518;28;101773;-84
2021/08/29 01:39:01;;;;;;;8.07;7.10;;;;;;;16.04;71.02;100061.78;4849631;28;99450;-83
2021/08/29 01:41:26;;;;;;;10.98;7.80;;;;;;;16.05;70.82;100057.31;4865677;28;96617;-84
2021/08/29 01:43:52;;;;;;;9.45;7.72;;;;;;;15.92;71.10;100051.09;4850050;28;96925;-84
2021/08/29 01:46:19;;;;;;;10.65;6.60;;;;;;;15.92;71.55;100053.75;4880832;28;100468;-84
2021/08/29 01:48:57;;;;;;;9.13;7.15;;;;;;;15.94;71.39;100052.72;4882485;28;101470;-84
2021/08/29 01:51:22;;;;;;;9.50;7.38;;;;;;;16.00;71.24;100059.44;4865091;28;96600;-84
2021/08/29 01:53:52;;;;;;;8.55;7.22;;;;;;;15.98;71.14;100059.50;4850619;28;96888;-84
2021/08/29 01:56:24;;;;;;;9.73;7.60;;;;;;;15.95;71.37;100056.19;4865581;28;102599;-87
2021/08/29 01:59:00;;;;;;;9.60;7.45;;;;;;;15.94;71.18;100063.28;4866273;28;99727;-86
2021/08/29 02:01:32;;;;;;;8.43;7.28;;;;;;;15.93;71.38;100061.56;4851474;28;96617;-86
2021/08/29 02:04:01;;;;;;;7.10;6.40;;;;;;;15.94;71.18;100060.66;4865598;28;97003;-86
2021/08/29 02:06:42;;;;;;;9.23;7.43;;;;;;;15.87;71.63;100055.81;4864749;28;100988;-84
2021/08/29 02:09:10;;;;;;;8.13;7.18;;;;;;;15.80;71.90;100060.63;4881104;28;101071;-87
2021/08/29 02:11:52;;;;;;;7.95;7.18;;;;;;;15.87;71.06;100045.22;4853492;28;97277;-86
2021/08/29 02:14:33;;;;;;;8.75;7.10;;;;;;;15.92;71.10;100053.75;4866369;28;96667;-86
2021/08/29 02:16:59;;;;;;;9.38;6.80;;;;;;;15.88;71.39;100046.91;4879766;28;101504;-85
2021/08/29 02:19:31;;;;;;;9.32;7.05;;;;;;;15.90;71.04;100050.31;4848995;28;101026;-86
2021/08/29 02:21:59;;;;;;;10.55;7.75;;;;;;;15.88;71.03;100049.56;4865006;28;96751;-86
2021/08/29 02:24:25;;;;;;;8.57;6.70;;;;;;;15.80;71.41;100036.81;4880276;28;96923;-86
2021/08/29 02:26:51;;;;;;;7.40;6.70;;;;;;;15.84;71.47;100040.97;4848791;28;101060;-86
2021/08/29 02:29:20;;;;;;;7.03;6.43;;;;;;;15.87;71.02;100042.56;4880159;28;102060;-86
2021/08/29 02:31:49;;;;;;;10.70;6.90;;;;;;;15.87;70.71;100043.41;4864687;28;96668;-86
2021/08/29 02:34:15;;;;;;;8.35;6.95;;;;;;;15.83;70.98;100042.75;4849402;28;96975;-85
2021/08/29 02:36:44;;;;;;;8.35;7.15;;;;;;;15.81;71.21;100046.44;4864370;28;101680;-86
2021/08/29 02:39:12;;;;;;;8.40;6.50;;;;;;;15.87;70.97;100046.06;4849122;28;101558;-86
2021/08/29 02:41:39;;;;;;;7.55;6.82;;;;;;;15.89;70.91;100046.81;4864103;28;96671;-85
2021/08/29 02:44:06;;;;;;;7.90;7.07;;;;;;;15.81;70.77;100033.19;4880341;28;96987;-86
2021/08/29 02:46:33;;;;;;;7.50;6.80;;;;;;;15.72;71.27;100034.59;4864393;28;100210;-86
2021/08/29 02:48:59;;;;;;;9.82;7.10;;;;;;;15.68;71.05;100032.22;4864350;28;98066;-86
2021/08/29 02:51:25;;;;;;;14.25;7.35;;;;;;;15.63;71.61;100033.31;4848178;28;96587;-86
2021/08/29 02:53:53;;;;;;;7.43;6.57;;;;;;;15.59;71.80;100030.94;4864681;28;96845;-86
2021/08/29 02:56:20;;;;;;;7.45;6.63;;;;;;;15.68;71.53;100032.22;4848609;28;100854;-86
2021/08/29 02:58:48;;;;;;;9.10;7.63;;;;;;;15.66;71.25;100026.16;4880693;28;98198;-87
2021/08/29 03:01:36;;;;;;;8.35;7.00;;;;;;;15.59;71.45;100039.75;4862943;28;96842;-84
2021/08/29 03:04:14;;;;;;;6.88;6.18;;;;;;;15.65;71.41;100041.19;4866051;28;96820;-86
2021/08/29 03:06:41;;;;;;;8.23;7.28;;;;;;;15.65;70.97;100037.66;4863495;28;101506;-85
2021/08/29 03:09:07;;;;;;;7.85;6.38;;;;;;;15.69;71.23;100033.94;4864047;28;101323;-86
2021/08/29 03:11:37;;;;;;;9.88;7.65;;;;;;;15.57;71.54;100038.13;4849424;28;96799;-84
2021/08/29 03:14:04;;;;;;;8.48;7.50;;;;;;;15.55;71.63;100029.44;4864467;28;96949;-87
2021/08/29 03:16:31;;;;;;;11.02;7.13;;;;;;;15.57;71.68;100032.84;4848996;28;100824;-86
2021/08/29 03:19:08;;;;;;;7.70;6.65;;;;;;;15.55;71.37;100027.63;4865951;28;101420;-86
2021/08/29 03:21:43;;;;;;;9.27;7.47;;;;;;;15.59;71.27;100039.75;4865675;28;96694;-86
2021/08/29 03:24:10;;;;;;;10.30;7.97;;;;;;;15.51;71.57;100031.41;4864781;28;96882;-87
2021/08/29 03:26:36;;;;;;;8.20;6.88;;;;;;;15.46;71.75;100028.19;4848200;28;101658;-84
2021/08/29 03:29:15;;;;;;;9.23;7.10;;;;;;;15.45;71.47;100018.56;4851896;28;101926;-86
2021/08/29 03:31:41;;;;;;;7.93;7.00;;;;;;;15.50;71.33;100023.56;4863414;28;96640;-85
2021/08/29 03:34:14;;;;;;;9.00;7.60;;;;;;;15.47;71.58;100016.66;4848503;28;96910;-86
2021/08/29 03:36:43;;;;;;;12.35;8.13;;;;;;;15.48;71.40;100017.53;4879775;28;98724;-86
2021/08/29 03:39:12;;;;;;;11.38;7.82;;;;;;;15.38;71.62;100011.91;4864082;28;101349;-86
2021/08/29 03:41:43;;;;;;;8.50;7.53;;;;;;;15.39;71.50;100000.41;4879554;28;96644;-82
2021/08/29 03:44:13;;;;;;;12.07;7.45;;;;;;;15.40;71.79;100008.22;4864349;28;96687;-85
2021/08/29 03:46:40;;;;;;;11.88;8.20;;;;;;;15.29;71.71;99996.59;4863530;28;101486;-85
2021/08/29 03:49:25;;;;;;;12.25;7.80;;;;;;;15.30;71.85;100004.44;4852626;28;101824;-85
2021/08/29 03:51:51;;;;;;;9.73;8.13;;;;;;;15.33;71.82;100006.91;4863764;28;96537;-85
2021/08/29 03:54:17;;;;;;;9.95;8.95;;;;;;;15.31;71.86;100007.94;4848066;28;96858;-85
2021/08/29 03:56:44;;;;;;;11.18;9.13;;;;;;;15.32;71.84;100015.75;4862901;28;101635;-85
2021/08/29 03:59:11;;;;;;;9.32;8.10;;;;;;;15.30;72.06;100014.13;4863533;28;101779;-85
2021/08/29 04:01:37;;;;;;;9.18;8.05;;;;;;;15.29;71.83;100015.09;4849331;28;97090;-82
2021/08/29 04:04:03;;;;;;;8.73;7.50;;;;;;;15.27;71.65;100009.91;4866880;28;96858;-86
2021/08/29 04:06:32;;;;;;;10.13;8.45;;;;;;;15.24;71.76;100002.16;4851665;28;100404;-86
2021/08/29 04:09:03;;;;;;;9.95;8.73;;;;;;;15.35;71.52;100004.16;4882429;28;101554;-83
2021/08/29 04:11:29;;;;;;;9.97;9.03;;;;;;;15.26;71.93;100015.28;4866880;28;96682;-84
2021/08/29 04:13:56;;;;;;;9.60;8.60;;;;;;;15.26;71.92;100008.19;4851583;28;96962;-85
2021/08/29 04:16:29;;;;;;;10.98;9.60;;;;;;;15.31;71.55;100002.66;4852993;28;100329;-85
2021/08/29 04:19:11;;;;;;;10.95;7.97;;;;;;;15.30;71.38;100016.78;4868424;28;100032;-86
2021/08/29 04:21:37;;;;;;;9.55;8.55;;;;;;;15.28;71.63;100014.25;4866407;28;96763;-84
2021/08/29 04:24:04;;;;;;;10.63;8.05;;;;;;;15.27;71.75;100009.91;4866102;28;96972;-84
2021/08/29 04:26:43;;;;;;;10.13;8.65;;;;;;;15.30;71.59;100016.78;4867958;28;101820;-86
2021/08/29 04:29:09;;;;;;;10.48;8.98;;;;;;;15.23;71.64;100004.88;4850782;28;100344;-85
2021/08/29 04:31:35;;;;;;;11.43;8.55;;;;;;;15.33;71.32;100012.19;4847814;28;96717;-86
2021/08/29 04:34:07;;;;;;;11.50;9.30;;;;;;;15.31;71.68;100007.94;4867188;28;96651;-86
2021/08/29 04:36:39;;;;;;;12.88;8.20;;;;;;;15.34;71.49;100016.53;4883006;28;101818;-83
2021/08/29 04:39:22;;;;;;;13.60;9.30;;;;;;;15.27;71.76;100012.56;4882395;28;100709;-84
2021/08/29 04:41:47;;;;;;;9.70;8.70;;;;;;;15.31;71.64;100018.50;4866290;28;96848;-85
2021/08/29 04:44:13;;;;;;;11.02;9.05;;;;;;;15.30;71.74;100022.97;4850875;28;96861;-86
2021/08/29 04:46:39;;;;;;;17.58;9.45;;;;;;;15.32;71.73;100028.97;4850031;28;101051;-83
2021/08/29 04:49:08;;;;;;;9.23;8.32;;;;;;;15.36;71.68;100027.88;4851029;28;101543;-85
2021/08/29 04:51:33;;;;;;;9.95;8.43;;;;;;;15.42;71.61;100031.09;4850689;28;96734;-86
2021/08/29 04:53:59;;;;;;;10.10;8.82;;;;;;;15.44;71.58;100032.69;4850474;28;97049;-82
2021/08/29 04:56:25;;;;;;;10.02;8.25;;;;;;;15.41;71.58;100030.25;4865749;28;101542;-86
2021/08/29 04:58:50;;;;;;;12.60;8.25;;;;;;;15.51;71.29;100034.06;4850122;28;101864;-85
2021/08/29 05:01:17;;;;;;;9.30;7.95;;;;;;;15.53;71.06;100040.13;4881777;28;96612;-86
2021/08/29 05:03:44;;;;;;;14.30;8.82;;;;;;;15.57;71.01;100032.84;4866600;28;97014;-86
2021/08/29 05:06:13;;;;;;;10.10;8.23;;;;;;;15.59;71.27;100033.59;4865947;28;100218;-86
2021/08/29 05:08:38;;;;;;;8.55;7.32;;;;;;;15.59;71.18;100036.22;4865793;28;100225;-84
2021/08/29 05:11:05;;;;;;;10.98;8.25;;;;;;;15.55;71.28;100022.34;4881314;28;96582;-85
2021/08/29 05:13:34;;;;;;;11.23;9.18;;;;;;;15.59;71.42;100031.81;4850935;28;96956;-85
2021/08/29 05:15:59;;;;;;;9.60;7.95;;;;;;;15.67;71.04;100038.44;4866188;28;97922;-85
2021/08/29 05:18:25;;;;;;;14.88;9.07;;;;;;;15.73;70.96;100033.66;4850342;28;101592;-86
2021/08/29 05:21:06;;;;;;;9.70;8.23;;;;;;;15.66;71.33;100026.16;4867805;28;96595;-85
2021/08/29 05:24:00;;;;;;;8.80;7.90;;;;;;;15.71;70.98;100029.41;4833597;28;96761;-85
2021/08/29 05:26:34;;;;;;;11.10;8.18;;;;;;;15.76;71.10;100036.13;4851874;28;100891;-86
2021/08/29 05:29:01;;;;;;;9.23;8.30;;;;;;;15.83;70.83;100039.25;4865708;28;101093;-85
2021/08/29 05:31:27;;;;;;;11.32;8.30;;;;;;;15.87;70.72;100037.28;4865522;28;96912;-85
2021/08/29 05:33:59;;;;;;;9.45;8.57;;;;;;;15.87;70.80;100043.41;4882431;28;96909;-85
2021/08/29 05:36:28;;;;;;;8.80;7.90;;;;;;;15.81;70.69;100028.75;4865556;28;97039;-84
2021/08/29 05:38:54;;;;;;;10.23;8.10;;;;;;;15.95;70.81;100040.31;4865472;28;101129;-84
2021/08/29 05:41:23;;;;;;;12.27;9.32;;;;;;;15.91;70.82;100039.66;4865901;28;96690;-84
2021/08/29 05:44:07;;;;;;;11.38;7.78;;;;;;;16.03;70.91;100043.34;4881407;28;96597;-85
2021/08/29 05:46:37;;;;;;;9.93;8.70;;;;;;;16.04;70.58;100037.09;4880760;28;101000;-84
2021/08/29 05:49:03;;;;;;;10.32;8.70;;;;;;;16.03;71.03;100040.72;4849588;28;100011;-84
2021/08/29 05:51:31;;;;;;;9.75;8.77;;;;;;;16.05;70.67;100050.22;4865623;28;96616;-84
2021/08/29 05:53:56;;;;;;;10.85;8.95;;;;;;;16.12;70.42;100047.25;4865920;28;96996;-84
2021/08/29 05:56:22;;;;;;;9.30;8.10;;;;;;;16.18;70.84;100055.66;4864684;28;101297;-84
2021/08/29 05:58:49;;;;;;;9.52;7.57;;;;;;;16.20;70.59;100040.53;4864836;28;99756;-84
2021/08/29 06:01:15;;;;;;;12.20;7.65;;;;;;;16.24;70.34;100039.38;4849122;28;96669;-84
2021/08/29 06:03:44;;;;;;;9.43;7.97;;;;;;;16.33;70.30;100045.91;4865321;28;96957;-82
2021/08/29 06:06:23;;;;;;;10.30;8.65;;;;;;;16.32;70.61;100038.03;4880774;28;99056;-84
2021/08/29 06:08:50;;;;;;;9.45;8.45;;;;;;;16.48;69.84;100047.56;4849384;28;101490;-84
2021/08/29 06:11:16;;;;;;;10.57;8.50;;;;;;;16.54;69.76;100038.41;4865074;28;96643;-84
2021/08/29 06:13:42;;;;;;;11.18;8.27;;;;;;;16.59;69.36;100035.47;4849312;28;97080;-81
2021/08/29 06:16:08;;;;;;;9.32;7.95;;;;;;;16.71;69.41;100039.97;4864543;28;100721;-84
2021/08/29 06:18:33;;;;;;;8.90;7.50;;;;;;;16.82;68.98;100042.00;4864929;28;101011;-84
2021/08/29 06:20:59;;;;;;;8.90;8.05;;;;;;;16.97;68.87;100039.19;4849107;28;96604;-83
2021/08/29 06:23:24;;;;;;;9.30;7.90;;;;;;;17.08;68.31;100032.34;4864895;28;96886;-84
2021/08/29 06:26:16;;;;;;;;;;;;;;;17.22;67.57;100042.03;4892821;28;97932;-84
2021/08/29 06:29:00;;;;;;;8.85;7.45;;;;;;;17.36;67.59;100026.88;4866785;28;97021;-83
2021/08/29 06:31:58;;;;;;;9.18;7.72;;;;;;;17.50;66.89;100031.28;4863315;28;96922;-83
2021/08/29 06:34:38;;;;;;;8.95;7.60;;;;;;;17.75;66.42;100034.94;4866628;28;96966;-84
2021/08/29 06:37:16;;;;;;;8.52;7.72;;;;;;;18.09;65.51;100033.47;4851710;28;101889;-84
2021/08/29 06:39:42;;;;;;;8.32;7.53;;;;;;;18.51;64.40;100037.56;4864236;28;101257;-83
2021/08/29 06:42:09;;;;;;;8.40;7.60;;;;;;;18.69;63.92;100027.41;4864871;28;96620;-84
2021/08/29 06:44:36;;;;;;;10.73;7.55;;;;;;;18.80;63.71;100021.34;4864860;28;96927;-84
2021/08/29 06:47:20;;;;;;;9.00;8.15;;;;;;;19.04;63.06;100023.16;4883051;28;97161;-84
2021/08/29 06:50:05;;;;;;;10.63;7.97;;;;;;;19.31;62.13;100020.25;4880117;28;97094;-83
2021/08/29 06:52:49;;;;;;;7.88;6.97;;;;;;;19.88;60.96;100014.16;4879652;28;96690;-85
2021/08/29 06:55:33;;;;;;;8.15;6.53;;;;;;;19.75;61.00;100013.38;4883405;28;96581;-85
2021/08/29 06:58:17;;;;;;;7.20;6.47;;;;;;;19.80;61.15;100020.06;4893496;28;97117;-85
2021/08/29 07:00:42;;;;;;;8.15;7.13;;;;;;;20.25;59.89;100021.94;4864047;28;101590;-85
2021/08/29 07:03:10;;;;;;;9.20;6.10;;;;;;;20.64;58.85;100014.41;4864614;28;96582;-85
2021/08/29 07:05:36;;;;;;;7.30;6.55;;;;;;;21.10;57.91;100013.31;4864473;28;96889;-85
2021/08/29 07:08:30;;;;;;;8.63;7.10;;;;;;;21.42;56.72;100008.81;4884869;28;97911;-85
2021/08/29 07:10:56;;;;;;;7.22;6.53;;;;;;;23.24;53.41;99996.44;4863859;28;99300;-85
2021/08/29 07:13:40;;;;;;;7.40;6.60;;;;;;;24.88;49.63;99999.59;4880105;28;96616;-85
2021/08/29 07:16:05;;;;;;;8.30;6.32;;;;;;;27.49;44.60;99992.06;4864495;28;96671;-86
2021/08/29 07:18:32;;;;;;;8.70;5.60;;;;;;;28.46;41.98;99989.31;4863711;28;101331;-85
2021/08/29 07:21:30;;;;;;;6.50;5.45;;;;;;;28.37;42.13;99996.56;4830776;28;97852;-84
2021/08/29 07:23:56;;;;;;;6.60;5.90;;;;;;;30.09;39.02;99992.59;4879331;28;96718;-84
2021/08/29 07:26:40;;;;;;;6.68;6.00;;;;;;;29.34;40.36;99988.91;4882460;28;96630;-84
2021/08/29 07:29:24;;;;;;;8.23;5.95;;;;;;;31.08;37.01;99984.88;4878937;28;97289;-84
2021/08/29 07:32:08;;;;;;;8.13;6.05;;;;;;;32.30;35.22;99983.72;4879368;28;96991;-85
2021/08/29 07:34:34;;;;;;;7.72;6.00;;;;;;;32.99;34.24;99982.75;4879753;28;96538;-84
2021/08/29 07:37:21;;;;;;;5.32;4.82;;;;;;;32.94;33.93;99978.94;4884534;28;96762;-84
2021/08/29 07:39:47;;;;;;;6.13;5.32;;;;;;;31.80;34.88;99981.13;4850906;28;101192;-81
2021/08/29 07:42:12;;;;;;;5.20;4.68;;;;;;;33.09;33.18;99969.59;4882414;28;101617;-84
2021/08/29 07:44:38;;;;;;;5.93;5.32;;;;;;;33.13;33.45;99979.00;4866778;28;96587;-84
2021/08/29 07:47:04;;;;;;;5.50;5.00;;;;;;;33.07;33.32;99979.81;4867290;28;96564;-84
2021/08/29 07:49:30;;;;;;;5.43;4.93;;;;;;;34.25;32.04;99968.22;4882447;28;101379;-84
2021/08/29 07:51:55;;;;;;;5.47;4.97;;;;;;;34.02;31.98;99972.25;4866213;28;101543;-84
2021/08/29 07:54:39;;;;;;;5.63;5.07;;;;;;;33.80;32.25;99965.38;4869502;28;96837;-84
2021/08/29 07:57:25;;;;;;;5.20;4.70;;;;;;;34.45;31.54;99974.44;4824774;28;96888;-84
2021/08/29 07:59:51;;;;;;;5.50;5.10;;;;;;;33.11;33.55;99964.78;4881899;28;100551;-85
2021/08/29 08:02:16;;;;;;;7.03;5.60;;;;;;;33.62;32.87;99966.03;4850525;28;101219;-83
2021/08/29 08:05:23;;;;;;;5.80;5.30;;;;;;;33.65;32.15;99971.06;4821504;29;96936;-84
2021/08/29 08:08:09;;;;;;;6.00;4.93;;;;;;;33.18;33.19;99958.50;4788974;29;99262;-82
2021/08/29 08:10:53;;;;;;;6.72;5.15;;;;;;;33.29;32.42;99966.88;4864767;28;97241;-84
2021/08/29 08:13:25;;;;;;;7.30;4.10;;;;;;;33.46;31.81;99963.75;4866927;28;101654;-85
2021/08/29 08:15:51;;;;;;;3.63;3.33;;;;;;;33.26;32.24;99961.84;4866587;28;96647;-83
2021/08/29 08:18:27;;;;;;;6.00;4.00;;;;;;;33.45;31.87;99960.16;4871345;28;96946;-84
2021/08/29 08:20:54;;;;;;;4.25;3.90;;;;;;;33.03;32.58;99961.44;4871060;28;101016;-82
2021/08/29 08:23:38;;;;;;;4.65;4.25;;;;;;;32.24;33.27;99960.09;4884058;28;97198;-85
2021/08/29 08:26:22;;;;;;;4.75;4.25;;;;;;;31.08;35.16;99957.78;4896575;28;96589;-84
2021/08/29 08:29:06;;;;;;;5.00;4.53;;;;;;;30.48;36.13;99969.81;4883048;28;96709;-84
2021/08/29 08:31:50;;;;;;;6.55;4.28;;;;;;;30.76;36.04;99961.81;4885342;28;97172;-84
2021/08/29 08:34:36;;;;;;;4.45;3.90;;;;;;;30.06;36.48;99959.69;4871559;28;97257;-84
2021/08/29 08:37:04;;;;;;;4.78;4.38;;;;;;;29.97;37.05;99958.94;4866923;28;96645;-83
2021/08/29 08:39:51;;;;;;;4.00;3.70;;;;;;;30.07;37.18;99956.78;4897760;28;96744;-81
2021/08/29 08:42:25;;;;;;;4.72;4.30;;;;;;;29.46;37.83;99946.06;4866902;28;101219;-84
2021/08/29 08:45:09;;;;;;;4.50;4.10;;;;;;;29.20;38.20;99959.16;4867941;28;97090;-84
2021/08/29 08:47:53;;;;;;;6.30;4.95;;;;;;;28.14;40.02;99958.72;4867767;28;96645;-83
2021/08/29 08:50:38;;;;;;;5.00;4.38;;;;;;;27.97;40.25;99952.53;4870401;28;96994;-85
2021/08/29 08:53:40;;;;;;;7.63;4.53;;;;;;;27.52;40.85;99953.97;4887779;28;99406;-83
2021/08/29 08:56:24;;;;;;;5.47;4.45;;;;;;;27.03;41.66;99945.06;4885089;28;96998;-83
2021/08/29 08:59:07;;;;;;;6.03;4.38;;;;;;;26.48;42.60;99959.88;4884214;28;97130;-83
2021/08/29 09:01:51;;;;;;;6.03;4.05;;;;;;;26.12;42.82;99961.91;4868529;28;96597;-82
2021/08/29 09:04:34;;;;;;;4.60;3.75;;;;;;;25.93;43.20;99952.25;4853766;28;101078;-82
2021/08/29 09:07:00;;;;;;;5.10;4.60;;;;;;;25.58;43.96;99954.03;4865506;28;98450;-82
2021/08/29 09:09:30;;;;;;;5.03;4.63;;;;;;;25.31;44.33;99952.34;4865896;28;96627;-82
2021/08/29 09:11:56;;;;;;;5.40;4.78;;;;;;;25.31;44.57;99957.72;4865670;28;98223;-82
2021/08/29 09:14:46;;;;;;;5.43;4.35;;;;;;;25.44;44.53;99960.81;4880954;28;97994;-83
2021/08/29 09:17:34;;;;;;;5.28;4.80;;;;;;;25.82;44.28;99953.38;4866052;28;100799;-83
2021/08/29 09:20:17;;;;;;;5.53;4.95;;;;;;;25.85;44.59;99954.91;4881941;28;96594;-82
2021/08/29 09:22:46;;;;;;;6.25;5.60;;;;;;;25.62;44.46;99950.03;4897893;28;96926;-83
2021/08/29 09:25:33;;;;;;;4.60;4.20;;;;;;;25.80;44.17;99949.97;4869787;28;97108;-78
2021/08/29 09:28:15;;;;;;;5.80;5.20;;;;;;;25.43;44.44;99945.72;4866454;28;100911;-80
2021/08/29 09:30:58;;;;;;;5.00;4.50;;;;;;;25.51;44.64;99942.22;4882401;28;96665;-78
2021/08/29 09:33:30;;;;;;;4.90;4.43;;;;;;;25.61;45.00;99944.81;4881551;28;96822;-79
2021/08/29 09:35:55;;;;;;;5.90;5.00;;;;;;;25.13;45.44;99941.56;4880608;28;101458;-80
2021/08/29 09:38:42;;;;;;;8.60;5.35;;;;;;;24.95;45.93;99946.13;4867646;28;97220;-76
2021/08/29 09:41:33;;;;;;;5.05;4.55;;;;;;;24.55;46.72;99940.22;4882526;28;96929;-77
2021/08/29 09:44:20;;;;;;;6.13;5.53;;;;;;;24.27;47.25;99936.66;4884192;28;96661;-79
2021/08/29 09:46:55;;;;;;;5.38;4.97;;;;;;;24.14;46.81;99936.16;4865530;28;101196;-78
2021/08/29 09:49:39;;;;;;;5.07;4.60;;;;;;;24.26;47.20;99942.16;4884355;28;97005;-78
2021/08/29 09:52:26;;;;;;;4.60;4.20;;;;;;;24.33;47.41;99943.28;4879157;28;96694;-78
2021/08/29 09:55:05;;;;;;;5.22;4.70;;;;;;;24.04;48.01;99943.44;4879540;28;96953;-78
2021/08/29 09:58:00;;;;;;;5.20;4.47;;;;;;;23.78;48.12;99940.56;4832663;28;97628;-80
2021/08/29 10:00:35;;;;;;;4.47;4.05;;;;;;;23.60;48.93;99946.66;4851372;28;101721;-80
2021/08/29 10:03:03;;;;;;;6.03;5.53;;;;;;;23.45;48.91;99934.72;4865027;28;96685;-78
2021/08/29 10:05:37;;;;;;;7.13;5.07;;;;;;;23.34;49.35;99945.56;4866058;28;96778;-80
2021/08/29 10:08:09;;;;;;;5.78;4.72;;;;;;;23.26;49.51;99943.59;4848696;28;101361;-78
2021/08/29 10:10:46;;;;;;;4.63;4.22;;;;;;;23.13;49.96;99937.72;4851963;28;101740;-77
2021/08/29 10:13:15;;;;;;;4.60;4.20;;;;;;;22.96;49.49;99940.09;4850053;28;96611;-78
2021/08/29 10:15:56;;;;;;;7.40;4.55;;;;;;;22.93;49.22;99935.00;4853150;28;96914;-79
2021/08/29 10:18:55;;;;;;;3.85;3.55;;;;;;;22.80;48.98;99926.41;4883715;28;99307;-79
2021/08/29 10:21:53;;;;;;;4.47;3.88;;;;;;;22.72;49.26;99936.94;4863307;28;97508;-80
2021/08/29 10:24:20;;;;;;;4.30;3.90;;;;;;;22.62;49.51;99936.09;4848130;28;96927;-79
2021/08/29 10:26:51;;;;;;;5.68;3.58;;;;;;;22.32;50.14;99941.41;4897441;28;96844;-79
2021/08/29 10:29:44;;;;;;;6.45;3.60;;;;;;;22.23;49.31;99955.59;4840049;28;97880;-79
2021/08/29 10:32:46;;;;;;;3.88;3.47;;;;;;;22.00;50.36;99965.59;4884038;28;98826;-79
2021/08/29 10:35:32;;;;;;;4.30;3.38;;;;;;;21.72;50.63;99960.94;4883531;28;96702;-79
2021/08/29 10:38:12;;;;;;;;;;;;;;;21.55;51.93;99962.38;4882404;28;96963;-79
2021/08/29 10:41:22;;;;;;;4.80;3.88;;;;;;;21.41;53.41;99958.22;4827811;29;97846;-79
2021/08/29 10:43:52;;;;;;;6.20;3.70;;;;;;;21.30;54.83;99963.63;4808955;29;101441;-79
2021/08/29 10:46:43;;;;;;;6.47;3.13;;;;;;;21.02;55.68;99948.06;4870386;28;96852;-79
2021/08/29 10:49:27;;;;;;;3.63;3.33;;;;;;;21.23;55.61;99956.13;4883483;28;96565;-79
2021/08/29 10:51:53;;;;;;;3.90;3.50;;;;;;;21.20;55.85;99948.34;4879312;28;101845;-79
2021/08/29 10:54:19;;;;;;;3.92;3.53;;;;;;;21.22;56.02;99954.41;4879483;28;101885;-79
2021/08/29 10:56:47;;;;;;;3.47;3.17;;;;;;;21.29;55.29;99960.06;4849039;28;96558;-79
2021/08/29 10:59:20;;;;;;;3.80;3.42;;;;;;;21.34;55.43;99944.53;4849759;28;96889;-79
2021/08/29 11:01:50;;;;;;;3.88;3.58;;;;;;;21.54;55.30;99944.69;4864121;28;100924;-79
2021/08/29 11:04:28;;;;;;;5.20;4.80;;;;;;;21.63;55.03;99943.88;4878680;28;97873;-79
2021/08/29 11:07:06;;;;;;;5.53;4.50;;;;;;;21.86;54.59;99933.88;4865577;28;96696;-79
2021/08/29 11:09:35;;;;;;;4.88;3.42;;;;;;;21.89;54.39;99931.78;4864679;28;97043;-79
2021/08/29 11:12:04;;;;;;;5.68;3.80;;;;;;;21.78;54.91;99926.53;4894509;28;100412;-79
2021/08/29 11:14:52;;;;;;;3.58;3.22;;;;;;;21.85;54.18;99927.69;4879437;28;100923;-79
2021/08/29 11:17:34;;;;;;;3.60;3.27;;;;;;;21.88;55.17;99915.91;4865210;28;96749;-79
2021/08/29 11:20:05;;;;;;;3.58;3.28;;;;;;;22.02;54.87;99931.56;4849772;28;96724;-79
2021/08/29 11:22:50;;;;;;;3.95;3.55;;;;;;;21.97;54.52;99930.28;4897078;28;96447;-79
2021/08/29 11:25:34;;;;;;;7.72;5.63;;;;;;;22.04;54.75;99931.41;4881907;28;97123;-79
2021/08/29 11:28:28;;;;;;;6.00;4.72;;;;;;;22.01;55.07;99923.69;4894071;28;96586;-79
2021/08/29 11:31:50;;;;;;;5.63;3.38;;;;;;;22.13;54.33;99926.09;4882416;28;96626;-79
2021/08/29 11:34:17;;;;;;;3.58;3.28;;;;;;;22.21;53.65;99922.78;4863665;28;101714;-79
2021/08/29 11:36:43;;;;;;;4.05;3.28;;;;;;;22.27;53.47;99926.75;4879882;28;97944;-79
2021/08/29 11:39:34;;;;;;;13.13;4.25;;;;;;;22.25;54.11;99923.34;4849926;28;96576;-79
2021/08/29 11:42:21;;;;;;;4.18;3.45;;;;;;;22.25;53.48;99924.22;4882638;28;96752;-79
2021/08/29 11:44:58;;;;;;;5.55;3.13;;;;;;;22.35;53.44;99917.06;4864365;28;101802;-79
2021/08/29 11:47:24;;;;;;;4.18;3.30;;;;;;;22.41;53.32;99920.16;4847672;28;100905;-79
2021/08/29 11:50:03;;;;;;;5.00;3.50;;;;;;;22.50;53.15;99920.19;4864809;28;96675;-79
2021/08/29 11:52:31;;;;;;;7.63;3.70;;;;;;;22.50;53.34;99911.31;4879505;28;96965;-79
2021/08/29 11:55:24;;;;;;;8.05;3.97;;;;;;;22.49;53.39;99906.97;4878840;28;101292;-79